Alcalde

April 5, 2020, 9 a.m.

  • imperial
Air Temperature RH Wind Speed Wind Direction Precipitation Solar Radiation Soil Temperature
Date Time Max Min Mean Max Min Max Mean Mean Total Total
US/Mountain F F F % % MPH MPH deg. in. MJ/m^2 F
2020-04-04 09:00 44.78 42.26 43.52 53.0 50.0 9.51 3.11 194.0 0.0 1.031 48.74
2020-04-04 10:00 48.02 44.78 45.5 52.0 46.0 11.61 4.81 203.0 0.0 1.734 48.56
2020-04-04 11:00 52.88 48.02 49.64 46.0 40.0 14.61 3.89 205.0 0.0 2.364 48.56
2020-04-04 12:00 57.2 52.16 54.32 41.0 34.0 12.71 4.61 203.0 0.0 2.841 48.74
2020-04-04 13:00 61.88 57.2 59.72 34.0 27.0 12.5 4.09 199.0 0.0 2.572 49.46
2020-04-04 14:00 61.52 59.9 60.44 30.0 23.0 10.69 2.91 199.0 0.0 1.133 50.18
2020-04-04 15:00 64.76 61.52 61.7 24.0 22.0 13.31 2.71 195.0 0.0 1.044 50.9
2020-04-04 16:00 65.12 62.24 64.22 23.0 21.0 14.81 3.89 195.0 0.0 1.334 51.26
2020-04-04 17:00 66.02 62.24 64.76 23.0 20.0 14.41 3.4 192.0 0.0 1.428 51.8
2020-04-04 18:00 67.64 64.76 66.2 20.0 17.0 12.1 3.69 196.0 0.0 1.503 52.16
2020-04-04 19:00 66.2 59.72 64.04 23.0 19.0 10.6 3.69 200.0 0.0 0.438 52.52
2020-04-04 20:00 59.72 51.62 56.3 32.0 23.0 2.71 0.49 161.0 0.0 0.02 52.7
2020-04-04 21:00 53.24 47.84 50.72 40.0 30.0 3.31 0.4 99.0 0.0 0.0 52.52
2020-04-04 22:00 48.92 41.36 45.86 56.0 35.0 4.0 0.81 83.0 0.0 0.0 51.98
2020-04-04 23:00 45.14 42.26 43.34 54.0 48.0 5.39 1.21 97.0 0.0 0.0 51.62
2020-04-05 00:00 46.76 43.88 44.78 52.0 40.0 4.21 1.41 28.0 0.0 0.0 51.08
2020-04-05 01:00 46.76 43.52 45.32 52.0 40.0 6.11 1.79 4.0 0.0 0.0 50.54
2020-04-05 02:00 45.5 40.28 43.7 56.0 44.0 4.0 1.21 82.0 0.0 0.0 50.18
2020-04-05 03:00 42.08 37.94 40.46 61.0 53.0 4.9 1.21 49.0 0.0 0.0 49.82
2020-04-05 04:00 37.94 35.78 37.04 67.0 61.0 6.31 1.01 149.0 0.0 0.0 49.46
2020-04-05 05:00 38.12 34.88 36.32 69.0 61.0 5.01 0.89 53.0 0.0 0.0 48.92
2020-04-05 06:00 34.88 32.54 33.8 75.0 66.0 1.99 0.49 126.0 0.0 0.0 48.56
2020-04-05 07:00 33.26 30.38 32.18 82.0 66.0 2.91 0.6 57.0 0.0 0.01 48.2
2020-04-05 08:00 40.46 30.02 32.54 83.0 54.0 4.41 0.69 209.0 0.0 0.355 47.66
2020-04-05 09:00 51.44 40.46 45.5 54.0 32.0 2.91 0.81 61.0 0.0 1.092 47.3

Data is presented as is, with no certification of correctness. DO NOT USE IN LEGAL PROCEEDINGS.